sensor_id;sensor_type;location;lat;lon;timestamp;temperature;humidity
5384;DHT22;2715;53.448;10.078;2022-09-29T00:01:24;21.70;75.00
5384;DHT22;2715;53.448;10.078;2022-09-29T00:03:50;21.70;75.60
5384;DHT22;2715;53.448;10.078;2022-09-29T00:06:17;21.70;75.00
5384;DHT22;2715;53.448;10.078;2022-09-29T00:08:44;21.70;75.00
5384;DHT22;2715;53.448;10.078;2022-09-29T00:11:13;21.70;75.00
5384;DHT22;2715;53.448;10.078;2022-09-29T00:13:40;21.70;74.90
5384;DHT22;2715;53.448;10.078;2022-09-29T00:16:06;21.70;74.80
5384;DHT22;2715;53.448;10.078;2022-09-29T00:18:34;21.70;74.90
5384;DHT22;2715;53.448;10.078;2022-09-29T00:21:01;21.70;75.00
5384;DHT22;2715;53.448;10.078;2022-09-29T00:23:29;21.70;74.80
5384;DHT22;2715;53.448;10.078;2022-09-29T00:26:00;21.60;74.70
5384;DHT22;2715;53.448;10.078;2022-09-29T00:28:28;21.60;74.50
5384;DHT22;2715;53.448;10.078;2022-09-29T00:30:56;21.60;74.30
5384;DHT22;2715;53.448;10.078;2022-09-29T00:33:23;21.60;74.30
5384;DHT22;2715;53.448;10.078;2022-09-29T00:35:56;21.60;74.60
5384;DHT22;2715;53.448;10.078;2022-09-29T00:38:24;21.60;74.40
5384;DHT22;2715;53.448;10.078;2022-09-29T00:40:50;21.60;74.00
5384;DHT22;2715;53.448;10.078;2022-09-29T00:43:19;21.60;73.80
5384;DHT22;2715;53.448;10.078;2022-09-29T00:45:47;21.60;73.60
5384;DHT22;2715;53.448;10.078;2022-09-29T00:48:15;21.60;73.50
5384;DHT22;2715;53.448;10.078;2022-09-29T00:50:44;21.60;73.50
5384;DHT22;2715;53.448;10.078;2022-09-29T00:53:14;21.60;73.30
5384;DHT22;2715;53.448;10.078;2022-09-29T00:55:42;21.60;73.00
5384;DHT22;2715;53.448;10.078;2022-09-29T00:58:12;21.60;72.90
5384;DHT22;2715;53.448;10.078;2022-09-29T01:00:44;21.50;72.40
5384;DHT22;2715;53.448;10.078;2022-09-29T01:03:12;21.50;72.20
5384;DHT22;2715;53.448;10.078;2022-09-29T01:05:41;21.60;72.20
5384;DHT22;2715;53.448;10.078;2022-09-29T01:08:10;21.50;71.90
5384;DHT22;2715;53.448;10.078;2022-09-29T01:10:37;21.50;71.80
5384;DHT22;2715;53.448;10.078;2022-09-29T01:13:04;21.50;71.50
5384;DHT22;2715;53.448;10.078;2022-09-29T01:15:31;21.50;71.40
5384;DHT22;2715;53.448;10.078;2022-09-29T01:17:58;21.50;71.20
5384;DHT22;2715;53.448;10.078;2022-09-29T01:20:26;21.50;70.90
5384;DHT22;2715;53.448;10.078;2022-09-29T01:28:57;21.50;70.50
5384;DHT22;2715;53.448;10.078;2022-09-29T01:31:30;21.50;70.40
5384;DHT22;2715;53.448;10.078;2022-09-29T01:34:00;21.50;70.30
5384;DHT22;2715;53.448;10.078;2022-09-29T01:36:32;21.40;70.10
5384;DHT22;2715;53.448;10.078;2022-09-29T01:39:04;21.40;70.10
5384;DHT22;2715;53.448;10.078;2022-09-29T01:41:34;21.40;70.00
5384;DHT22;2715;53.448;10.078;2022-09-29T01:44:03;21.40;70.00
5384;DHT22;2715;53.448;10.078;2022-09-29T01:46:34;21.40;69.80
5384;DHT22;2715;53.448;10.078;2022-09-29T01:49:02;21.40;69.60
5384;DHT22;2715;53.448;10.078;2022-09-29T01:51:31;21.40;69.60
5384;DHT22;2715;53.448;10.078;2022-09-29T01:54:02;21.40;69.70
5384;DHT22;2715;53.448;10.078;2022-09-29T01:56:31;21.40;69.50
5384;DHT22;2715;53.448;10.078;2022-09-29T01:59:01;21.40;69.50
5384;DHT22;2715;53.448;10.078;2022-09-29T02:01:30;21.40;69.40
5384;DHT22;2715;53.448;10.078;2022-09-29T02:04:02;21.40;69.40
5384;DHT22;2715;53.448;10.078;2022-09-29T02:06:31;21.40;69.20
5384;DHT22;2715;53.448;10.078;2022-09-29T02:09:02;21.40;69.10
5384;DHT22;2715;53.448;10.078;2022-09-29T02:11:29;21.40;69.10
5384;DHT22;2715;53.448;10.078;2022-09-29T02:13:58;21.40;69.10
5384;DHT22;2715;53.448;10.078;2022-09-29T02:16:28;21.40;69.10
5384;DHT22;2715;53.448;10.078;2022-09-29T02:18:57;21.40;69.00
5384;DHT22;2715;53.448;10.078;2022-09-29T02:21:27;21.40;68.90
5384;DHT22;2715;53.448;10.078;2022-09-29T02:23:54;21.40;68.90
5384;DHT22;2715;53.448;10.078;2022-09-29T02:26:21;21.40;68.90
5384;DHT22;2715;53.448;10.078;2022-09-29T02:28:49;21.40;68.90
5384;DHT22;2715;53.448;10.078;2022-09-29T02:31:16;21.40;68.80
5384;DHT22;2715;53.448;10.078;2022-09-29T02:33:44;21.40;68.70
5384;DHT22;2715;53.448;10.078;2022-09-29T02:36:14;21.40;68.60
5384;DHT22;2715;53.448;10.078;2022-09-29T02:38:47;21.40;68.70
5384;DHT22;2715;53.448;10.078;2022-09-29T02:41:59;21.40;68.60
5384;DHT22;2715;53.448;10.078;2022-09-29T02:44:38;21.40;68.70
5384;DHT22;2715;53.448;10.078;2022-09-29T02:47:12;21.40;68.60
5384;DHT22;2715;53.448;10.078;2022-09-29T02:49:49;21.40;68.60
5384;DHT22;2715;53.448;10.078;2022-09-29T02:52:22;21.40;68.60
5384;DHT22;2715;53.448;10.078;2022-09-29T02:54:56;21.40;68.60
5384;DHT22;2715;53.448;10.078;2022-09-29T02:57:27;21.40;68.60
5384;DHT22;2715;53.448;10.078;2022-09-29T02:59:56;21.40;68.50
5384;DHT22;2715;53.448;10.078;2022-09-29T03:02:25;21.40;68.50
5384;DHT22;2715;53.448;10.078;2022-09-29T03:04:52;21.40;68.40
5384;DHT22;2715;53.448;10.078;2022-09-29T03:07:19;21.40;68.40
5384;DHT22;2715;53.448;10.078;2022-09-29T03:09:46;21.40;69.00
5384;DHT22;2715;53.448;10.078;2022-09-29T03:12:14;21.40;68.30
5384;DHT22;2715;53.448;10.078;2022-09-29T03:14:42;21.40;68.40
5384;DHT22;2715;53.448;10.078;2022-09-29T03:17:09;21.40;68.30
5384;DHT22;2715;53.448;10.078;2022-09-29T03:19:35;21.40;68.20
5384;DHT22;2715;53.448;10.078;2022-09-29T03:22:02;21.40;68.10
5384;DHT22;2715;53.448;10.078;2022-09-29T03:24:29;21.40;68.10
5384;DHT22;2715;53.448;10.078;2022-09-29T03:26:56;21.40;68.00
5384;DHT22;2715;53.448;10.078;2022-09-29T03:29:24;21.40;68.00
5384;DHT22;2715;53.448;10.078;2022-09-29T03:31:50;21.40;67.90
5384;DHT22;2715;53.448;10.078;2022-09-29T03:34:17;21.30;67.80
5384;DHT22;2715;53.448;10.078;2022-09-29T03:36:44;21.40;67.90
5384;DHT22;2715;53.448;10.078;2022-09-29T03:39:10;21.40;67.90
5384;DHT22;2715;53.448;10.078;2022-09-29T03:41:37;21.40;67.90
5384;DHT22;2715;53.448;10.078;2022-09-29T03:44:04;21.40;67.80
5384;DHT22;2715;53.448;10.078;2022-09-29T03:46:32;21.30;67.70
5384;DHT22;2715;53.448;10.078;2022-09-29T03:48:58;21.40;67.80
5384;DHT22;2715;53.448;10.078;2022-09-29T03:51:25;21.40;67.80
5384;DHT22;2715;53.448;10.078;2022-09-29T03:53:52;21.40;67.80
5384;DHT22;2715;53.448;10.078;2022-09-29T03:56:19;21.30;67.60
5384;DHT22;2715;53.448;10.078;2022-09-29T03:58:46;21.30;67.60
5384;DHT22;2715;53.448;10.078;2022-09-29T04:01:12;21.30;67.60
5384;DHT22;2715;53.448;10.078;2022-09-29T04:03:40;21.30;67.70
5384;DHT22;2715;53.448;10.078;2022-09-29T04:06:07;21.30;67.70
5384;DHT22;2715;53.448;10.078;2022-09-29T04:08:34;21.30;67.80
5384;DHT22;2715;53.448;10.078;2022-09-29T04:11:01;21.30;67.80
5384;DHT22;2715;53.448;10.078;2022-09-29T04:13:27;21.30;67.80
5384;DHT22;2715;53.448;10.078;2022-09-29T04:15:57;21.30;67.80
5384;DHT22;2715;53.448;10.078;2022-09-29T04:18:24;21.30;67.80
5384;DHT22;2715;53.448;10.078;2022-09-29T04:20:52;21.30;67.80
5384;DHT22;2715;53.448;10.078;2022-09-29T04:23:19;21.30;67.70
5384;DHT22;2715;53.448;10.078;2022-09-29T04:25:45;21.30;67.70
5384;DHT22;2715;53.448;10.078;2022-09-29T04:28:12;21.40;67.80
5384;DHT22;2715;53.448;10.078;2022-09-29T04:30:39;21.30;67.70
5384;DHT22;2715;53.448;10.078;2022-09-29T04:33:05;21.30;68.40
5384;DHT22;2715;53.448;10.078;2022-09-29T04:35:32;21.30;67.60
5384;DHT22;2715;53.448;10.078;2022-09-29T04:38:00;21.30;67.60
5384;DHT22;2715;53.448;10.078;2022-09-29T04:40:27;21.30;67.60
5384;DHT22;2715;53.448;10.078;2022-09-29T04:42:53;21.30;67.60
5384;DHT22;2715;53.448;10.078;2022-09-29T04:45:20;21.30;67.50
5384;DHT22;2715;53.448;10.078;2022-09-29T04:47:47;21.30;67.50
5384;DHT22;2715;53.448;10.078;2022-09-29T04:50:13;21.30;67.50
5384;DHT22;2715;53.448;10.078;2022-09-29T04:52:40;21.30;67.70
5384;DHT22;2715;53.448;10.078;2022-09-29T04:55:09;21.30;67.80
5384;DHT22;2715;53.448;10.078;2022-09-29T04:57:36;21.30;67.80
5384;DHT22;2715;53.448;10.078;2022-09-29T05:00:03;21.30;67.80
5384;DHT22;2715;53.448;10.078;2022-09-29T05:02:30;21.30;67.80
5384;DHT22;2715;53.448;10.078;2022-09-29T05:04:57;21.30;67.80
5384;DHT22;2715;53.448;10.078;2022-09-29T05:07:24;21.30;67.80
5384;DHT22;2715;53.448;10.078;2022-09-29T05:09:50;21.30;67.60
5384;DHT22;2715;53.448;10.078;2022-09-29T05:12:18;21.30;67.40
5384;DHT22;2715;53.448;10.078;2022-09-29T05:15:05;21.30;67.40
5384;DHT22;2715;53.448;10.078;2022-09-29T05:17:32;21.30;67.30
5384;DHT22;2715;53.448;10.078;2022-09-29T05:19:58;21.30;66.90
5384;DHT22;2715;53.448;10.078;2022-09-29T05:22:25;21.30;67.00
5384;DHT22;2715;53.448;10.078;2022-09-29T05:24:52;21.30;67.10
5384;DHT22;2715;53.448;10.078;2022-09-29T05:27:20;21.30;67.10
5384;DHT22;2715;53.448;10.078;2022-09-29T05:29:47;21.30;67.10
5384;DHT22;2715;53.448;10.078;2022-09-29T05:32:14;21.20;66.90
5384;DHT22;2715;53.448;10.078;2022-09-29T05:34:41;21.30;66.90
5384;DHT22;2715;53.448;10.078;2022-09-29T05:37:07;21.30;66.90
5384;DHT22;2715;53.448;10.078;2022-09-29T05:39:34;21.30;66.80
5384;DHT22;2715;53.448;10.078;2022-09-29T05:42:01;21.30;66.80
5384;DHT22;2715;53.448;10.078;2022-09-29T05:44:29;21.30;66.70
5384;DHT22;2715;53.448;10.078;2022-09-29T05:46:56;21.30;66.60
5384;DHT22;2715;53.448;10.078;2022-09-29T05:49:23;21.30;66.50
5384;DHT22;2715;53.448;10.078;2022-09-29T05:51:49;21.30;66.50
5384;DHT22;2715;53.448;10.078;2022-09-29T05:54:16;21.30;66.40
5384;DHT22;2715;53.448;10.078;2022-09-29T05:56:43;21.30;66.40
5384;DHT22;2715;53.448;10.078;2022-09-29T05:59:09;21.30;66.30
5384;DHT22;2715;53.448;10.078;2022-09-29T06:01:37;21.30;66.30
5384;DHT22;2715;53.448;10.078;2022-09-29T06:04:04;21.30;66.30
5384;DHT22;2715;53.448;10.078;2022-09-29T06:06:31;21.30;66.20
5384;DHT22;2715;53.448;10.078;2022-09-29T06:08:57;21.30;66.20
5384;DHT22;2715;53.448;10.078;2022-09-29T06:11:25;21.30;66.10
5384;DHT22;2715;53.448;10.078;2022-09-29T06:13:53;21.30;66.20
5384;DHT22;2715;53.448;10.078;2022-09-29T06:16:20;21.30;66.10
5384;DHT22;2715;53.448;10.078;2022-09-29T06:18:48;21.30;66.10
5384;DHT22;2715;53.448;10.078;2022-09-29T06:21:16;21.30;66.00
5384;DHT22;2715;53.448;10.078;2022-09-29T06:23:43;21.30;66.00
5384;DHT22;2715;53.448;10.078;2022-09-29T06:26:10;21.30;66.00
5384;DHT22;2715;53.448;10.078;2022-09-29T06:28:37;21.30;65.90
5384;DHT22;2715;53.448;10.078;2022-09-29T06:31:04;21.30;65.90
5384;DHT22;2715;53.448;10.078;2022-09-29T06:33:31;21.30;65.80
5384;DHT22;2715;53.448;10.078;2022-09-29T06:36:00;21.30;65.80
5384;DHT22;2715;53.448;10.078;2022-09-29T06:38:45;21.40;65.90
5384;DHT22;2715;53.448;10.078;2022-09-29T06:41:12;21.30;65.70
5384;DHT22;2715;53.448;10.078;2022-09-29T06:43:39;21.40;65.80
5384;DHT22;2715;53.448;10.078;2022-09-29T06:46:05;21.40;65.70
5384;DHT22;2715;53.448;10.078;2022-09-29T06:48:32;21.40;65.70
5384;DHT22;2715;53.448;10.078;2022-09-29T06:51:00;21.40;65.70
5384;DHT22;2715;53.448;10.078;2022-09-29T06:53:27;21.40;65.70
5384;DHT22;2715;53.448;10.078;2022-09-29T06:55:54;21.40;65.70
5384;DHT22;2715;53.448;10.078;2022-09-29T06:58:21;21.40;65.60
5384;DHT22;2715;53.448;10.078;2022-09-29T07:00:47;21.40;65.60
5384;DHT22;2715;53.448;10.078;2022-09-29T07:03:14;21.40;65.60
5384;DHT22;2715;53.448;10.078;2022-09-29T07:05:41;21.40;65.50
5384;DHT22;2715;53.448;10.078;2022-09-29T07:08:10;21.40;65.50
5384;DHT22;2715;53.448;10.078;2022-09-29T07:10:36;21.40;66.20
5384;DHT22;2715;53.448;10.078;2022-09-29T07:13:03;21.40;65.40
5384;DHT22;2715;53.448;10.078;2022-09-29T07:15:30;21.40;65.40
5384;DHT22;2715;53.448;10.078;2022-09-29T07:17:57;21.40;65.40
5384;DHT22;2715;53.448;10.078;2022-09-29T07:20:24;21.50;65.50
5384;DHT22;2715;53.448;10.078;2022-09-29T07:22:51;21.40;65.30
5384;DHT22;2715;53.448;10.078;2022-09-29T07:25:19;21.40;65.30
5384;DHT22;2715;53.448;10.078;2022-09-29T07:27:46;21.40;65.20
5384;DHT22;2715;53.448;10.078;2022-09-29T07:30:13;21.50;65.40
5384;DHT22;2715;53.448;10.078;2022-09-29T07:32:40;21.40;65.20
5384;DHT22;2715;53.448;10.078;2022-09-29T07:35:07;21.40;65.20
5384;DHT22;2715;53.448;10.078;2022-09-29T07:37:33;21.40;65.20
5384;DHT22;2715;53.448;10.078;2022-09-29T07:40:00;21.50;65.30
5384;DHT22;2715;53.448;10.078;2022-09-29T07:42:28;21.50;65.20
5384;DHT22;2715;53.448;10.078;2022-09-29T07:44:55;21.50;65.20
5384;DHT22;2715;53.448;10.078;2022-09-29T07:47:22;21.50;65.20
5384;DHT22;2715;53.448;10.078;2022-09-29T07:49:48;21.50;65.20
5384;DHT22;2715;53.448;10.078;2022-09-29T07:52:15;21.50;65.20
5384;DHT22;2715;53.448;10.078;2022-09-29T07:54:42;21.50;65.00
5384;DHT22;2715;53.448;10.078;2022-09-29T07:57:08;21.50;65.10
5384;DHT22;2715;53.448;10.078;2022-09-29T07:59:36;21.50;65.10
5384;DHT22;2715;53.448;10.078;2022-09-29T08:02:03;21.50;65.10
5384;DHT22;2715;53.448;10.078;2022-09-29T08:04:30;21.50;65.20
5384;DHT22;2715;53.448;10.078;2022-09-29T08:06:56;21.50;65.20
5384;DHT22;2715;53.448;10.078;2022-09-29T08:09:24;21.60;65.20
5384;DHT22;2715;53.448;10.078;2022-09-29T08:11:50;21.60;65.20
5384;DHT22;2715;53.448;10.078;2022-09-29T08:14:17;21.50;65.10
5384;DHT22;2715;53.448;10.078;2022-09-29T08:16:45;21.60;65.20
5384;DHT22;2715;53.448;10.078;2022-09-29T08:19:11;21.60;65.10
5384;DHT22;2715;53.448;10.078;2022-09-29T08:21:38;21.60;65.10
5384;DHT22;2715;53.448;10.078;2022-09-29T08:24:05;21.60;65.00
5384;DHT22;2715;53.448;10.078;2022-09-29T08:26:33;21.60;65.10
5384;DHT22;2715;53.448;10.078;2022-09-29T08:29:00;21.60;65.10
5384;DHT22;2715;53.448;10.078;2022-09-29T08:31:27;21.60;65.10
5384;DHT22;2715;53.448;10.078;2022-09-29T08:33:55;21.60;65.00
5384;DHT22;2715;53.448;10.078;2022-09-29T08:36:22;21.60;65.10
5384;DHT22;2715;53.448;10.078;2022-09-29T08:38:49;21.60;65.10
5384;DHT22;2715;53.448;10.078;2022-09-29T08:41:22;21.60;65.10
5384;DHT22;2715;53.448;10.078;2022-09-29T08:43:52;21.60;65.00
5384;DHT22;2715;53.448;10.078;2022-09-29T08:46:23;21.60;65.00
5384;DHT22;2715;53.448;10.078;2022-09-29T08:48:51;21.60;65.00
5384;DHT22;2715;53.448;10.078;2022-09-29T08:51:23;21.70;65.20
5384;DHT22;2715;53.448;10.078;2022-09-29T08:53:52;21.70;65.10
5384;DHT22;2715;53.448;10.078;2022-09-29T08:56:21;21.70;65.10
5384;DHT22;2715;53.448;10.078;2022-09-29T08:58:50;21.70;65.10
5384;DHT22;2715;53.448;10.078;2022-09-29T09:01:20;21.70;65.10
5384;DHT22;2715;53.448;10.078;2022-09-29T09:03:52;21.70;65.10
5384;DHT22;2715;53.448;10.078;2022-09-29T09:06:26;21.70;65.10
5384;DHT22;2715;53.448;10.078;2022-09-29T09:11:49;21.70;65.00
5384;DHT22;2715;53.448;10.078;2022-09-29T09:14:22;21.70;65.00
5384;DHT22;2715;53.448;10.078;2022-09-29T09:16:53;21.70;65.00
5384;DHT22;2715;53.448;10.078;2022-09-29T09:19:35;21.70;65.00
5384;DHT22;2715;53.448;10.078;2022-09-29T09:22:10;21.80;65.10
5384;DHT22;2715;53.448;10.078;2022-09-29T09:24:40;21.80;65.10
5384;DHT22;2715;53.448;10.078;2022-09-29T09:27:08;21.80;65.10
5384;DHT22;2715;53.448;10.078;2022-09-29T09:29:39;21.80;65.10
5384;DHT22;2715;53.448;10.078;2022-09-29T09:32:08;21.80;65.10
5384;DHT22;2715;53.448;10.078;2022-09-29T09:34:37;21.80;65.10
5384;DHT22;2715;53.448;10.078;2022-09-29T09:37:05;21.80;65.10
5384;DHT22;2715;53.448;10.078;2022-09-29T09:39:35;21.80;65.10
5384;DHT22;2715;53.448;10.078;2022-09-29T09:42:05;21.80;65.10
5384;DHT22;2715;53.448;10.078;2022-09-29T09:44:35;21.80;65.10
5384;DHT22;2715;53.448;10.078;2022-09-29T09:47:08;21.80;65.10
5384;DHT22;2715;53.448;10.078;2022-09-29T09:49:38;21.90;65.20
5384;DHT22;2715;53.448;10.078;2022-09-29T09:52:08;21.90;65.20
5384;DHT22;2715;53.448;10.078;2022-09-29T09:54:39;21.90;65.20
5384;DHT22;2715;53.448;10.078;2022-09-29T09:57:16;21.90;65.20
5384;DHT22;2715;53.448;10.078;2022-09-29T09:59:50;22.00;65.30
5384;DHT22;2715;53.448;10.078;2022-09-29T10:02:20;22.00;65.30
5384;DHT22;2715;53.448;10.078;2022-09-29T10:04:48;22.00;65.20
5384;DHT22;2715;53.448;10.078;2022-09-29T10:07:16;22.00;65.30
5384;DHT22;2715;53.448;10.078;2022-09-29T10:09:44;22.00;65.20
5384;DHT22;2715;53.448;10.078;2022-09-29T10:12:12;22.10;65.30
5384;DHT22;2715;53.448;10.078;2022-09-29T10:14:40;22.10;65.30
5384;DHT22;2715;53.448;10.078;2022-09-29T10:17:10;22.10;65.30
5384;DHT22;2715;53.448;10.078;2022-09-29T10:19:51;22.10;65.30
5384;DHT22;2715;53.448;10.078;2022-09-29T10:22:21;22.20;65.30
5384;DHT22;2715;53.448;10.078;2022-09-29T10:24:52;22.20;65.30
5384;DHT22;2715;53.448;10.078;2022-09-29T10:27:21;22.20;65.30
5384;DHT22;2715;53.448;10.078;2022-09-29T10:29:49;22.20;65.30
5384;DHT22;2715;53.448;10.078;2022-09-29T10:32:20;22.20;65.30
5384;DHT22;2715;53.448;10.078;2022-09-29T10:34:48;22.20;65.30
5384;DHT22;2715;53.448;10.078;2022-09-29T10:37:19;22.20;65.30
5384;DHT22;2715;53.448;10.078;2022-09-29T10:39:48;22.30;65.30
5384;DHT22;2715;53.448;10.078;2022-09-29T10:42:18;22.30;65.40
5384;DHT22;2715;53.448;10.078;2022-09-29T10:44:48;22.30;65.40
5384;DHT22;2715;53.448;10.078;2022-09-29T10:47:15;22.30;65.40
5384;DHT22;2715;53.448;10.078;2022-09-29T10:49:42;22.30;65.40
5384;DHT22;2715;53.448;10.078;2022-09-29T10:52:15;22.30;65.40
5384;DHT22;2715;53.448;10.078;2022-09-29T10:54:51;22.30;65.40
5384;DHT22;2715;53.448;10.078;2022-09-29T10:57:22;22.40;65.50
5384;DHT22;2715;53.448;10.078;2022-09-29T10:59:50;22.40;65.50
5384;DHT22;2715;53.448;10.078;2022-09-29T11:02:20;22.40;65.50
5384;DHT22;2715;53.448;10.078;2022-09-29T11:04:48;22.40;65.70
5384;DHT22;2715;53.448;10.078;2022-09-29T11:07:15;22.40;65.50
5384;DHT22;2715;53.448;10.078;2022-09-29T11:09:42;22.40;65.50
5384;DHT22;2715;53.448;10.078;2022-09-29T11:12:28;22.40;65.50
5384;DHT22;2715;53.448;10.078;2022-09-29T11:14:56;22.50;65.60
5384;DHT22;2715;53.448;10.078;2022-09-29T11:17:24;22.50;65.60
5384;DHT22;2715;53.448;10.078;2022-09-29T11:19:51;22.50;65.60
5384;DHT22;2715;53.448;10.078;2022-09-29T11:25:05;22.50;65.70
5384;DHT22;2715;53.448;10.078;2022-09-29T11:27:42;22.50;65.70
5384;DHT22;2715;53.448;10.078;2022-09-29T11:30:11;22.50;65.70
5384;DHT22;2715;53.448;10.078;2022-09-29T11:33:02;22.50;65.90
5384;DHT22;2715;53.448;10.078;2022-09-29T11:35:38;22.50;66.00
5384;DHT22;2715;53.448;10.078;2022-09-29T11:38:14;22.50;66.20
5384;DHT22;2715;53.448;10.078;2022-09-29T11:40:47;22.50;66.20
5384;DHT22;2715;53.448;10.078;2022-09-29T11:43:27;22.50;66.20
5384;DHT22;2715;53.448;10.078;2022-09-29T11:45:58;22.50;66.20
5384;DHT22;2715;53.448;10.078;2022-09-29T11:48:42;22.50;66.30
5384;DHT22;2715;53.448;10.078;2022-09-29T11:51:12;22.60;66.30
5384;DHT22;2715;53.448;10.078;2022-09-29T11:53:48;22.60;66.40
5384;DHT22;2715;53.448;10.078;2022-09-29T11:56:19;22.60;66.40
5384;DHT22;2715;53.448;10.078;2022-09-29T11:58:56;22.60;66.40
5384;DHT22;2715;53.448;10.078;2022-09-29T12:01:29;22.50;66.40
5384;DHT22;2715;53.448;10.078;2022-09-29T12:04:02;22.60;66.50
5384;DHT22;2715;53.448;10.078;2022-09-29T12:09:26;22.60;66.60
5384;DHT22;2715;53.448;10.078;2022-09-29T12:11:59;22.60;66.70
5384;DHT22;2715;53.448;10.078;2022-09-29T12:14:32;22.60;66.60
5384;DHT22;2715;53.448;10.078;2022-09-29T12:17:06;22.60;66.70
5384;DHT22;2715;53.448;10.078;2022-09-29T12:19:35;22.60;66.70
5384;DHT22;2715;53.448;10.078;2022-09-29T12:22:03;22.60;66.70
5384;DHT22;2715;53.448;10.078;2022-09-29T12:24:34;22.60;66.70
5384;DHT22;2715;53.448;10.078;2022-09-29T12:27:03;22.60;66.80
5384;DHT22;2715;53.448;10.078;2022-09-29T12:29:33;22.60;66.80
5384;DHT22;2715;53.448;10.078;2022-09-29T12:32:03;22.60;66.80
5384;DHT22;2715;53.448;10.078;2022-09-29T12:34:35;22.60;66.80
5384;DHT22;2715;53.448;10.078;2022-09-29T12:37:06;22.60;66.80
5384;DHT22;2715;53.448;10.078;2022-09-29T12:39:40;22.60;66.80
5384;DHT22;2715;53.448;10.078;2022-09-29T12:42:12;22.60;66.80
5384;DHT22;2715;53.448;10.078;2022-09-29T12:44:45;22.60;66.80
5384;DHT22;2715;53.448;10.078;2022-09-29T12:47:17;22.60;66.80
5384;DHT22;2715;53.448;10.078;2022-09-29T12:49:48;22.70;66.90
5384;DHT22;2715;53.448;10.078;2022-09-29T12:52:22;22.70;66.90
5384;DHT22;2715;53.448;10.078;2022-09-29T12:54:52;22.70;67.00
5384;DHT22;2715;53.448;10.078;2022-09-29T12:57:20;22.70;66.90
5384;DHT22;2715;53.448;10.078;2022-09-29T12:59:51;22.70;67.00
5384;DHT22;2715;53.448;10.078;2022-09-29T13:02:28;22.70;67.00
5384;DHT22;2715;53.448;10.078;2022-09-29T13:05:02;22.70;67.00
5384;DHT22;2715;53.448;10.078;2022-09-29T13:10:17;22.70;67.10
5384;DHT22;2715;53.448;10.078;2022-09-29T13:13:00;22.70;67.00
5384;DHT22;2715;53.448;10.078;2022-09-29T13:15:36;22.70;67.00
5384;DHT22;2715;53.448;10.078;2022-09-29T13:18:12;22.70;67.00
5384;DHT22;2715;53.448;10.078;2022-09-29T13:20:57;22.70;67.00
5384;DHT22;2715;53.448;10.078;2022-09-29T13:23:29;22.60;66.90
5384;DHT22;2715;53.448;10.078;2022-09-29T13:26:00;22.70;67.00
5384;DHT22;2715;53.448;10.078;2022-09-29T13:28:31;22.70;67.10
5384;DHT22;2715;53.448;10.078;2022-09-29T13:31:01;22.70;67.00
5384;DHT22;2715;53.448;10.078;2022-09-29T13:33:28;22.70;67.10
5384;DHT22;2715;53.448;10.078;2022-09-29T13:35:55;22.70;67.10
5384;DHT22;2715;53.448;10.078;2022-09-29T13:38:23;22.70;67.10
5384;DHT22;2715;53.448;10.078;2022-09-29T13:41:07;22.60;67.00
5384;DHT22;2715;53.448;10.078;2022-09-29T13:43:37;22.70;67.00
5384;DHT22;2715;53.448;10.078;2022-09-29T13:49:00;22.70;67.00
5384;DHT22;2715;53.448;10.078;2022-09-29T13:51:29;22.70;67.00
5384;DHT22;2715;53.448;10.078;2022-09-29T13:54:22;22.70;67.00
5384;DHT22;2715;53.448;10.078;2022-09-29T13:56:49;22.70;67.00
5384;DHT22;2715;53.448;10.078;2022-09-29T13:59:19;22.70;67.00
5384;DHT22;2715;53.448;10.078;2022-09-29T14:01:46;22.70;66.90
5384;DHT22;2715;53.448;10.078;2022-09-29T14:04:41;22.70;66.90
5384;DHT22;2715;53.448;10.078;2022-09-29T14:07:11;22.70;66.90
5384;DHT22;2715;53.448;10.078;2022-09-29T14:09:39;22.70;66.80
5384;DHT22;2715;53.448;10.078;2022-09-29T14:12:08;22.70;66.80
5384;DHT22;2715;53.448;10.078;2022-09-29T14:14:35;22.70;66.80
5384;DHT22;2715;53.448;10.078;2022-09-29T14:17:06;22.70;66.80
5384;DHT22;2715;53.448;10.078;2022-09-29T14:19:47;22.70;66.80
5384;DHT22;2715;53.448;10.078;2022-09-29T14:27:41;22.70;66.90
5384;DHT22;2715;53.448;10.078;2022-09-29T14:30:15;22.60;66.80
5384;DHT22;2715;53.448;10.078;2022-09-29T14:32:45;22.70;66.90
5384;DHT22;2715;53.448;10.078;2022-09-29T14:35:20;22.70;66.90
5384;DHT22;2715;53.448;10.078;2022-09-29T14:37:51;22.70;66.90
5384;DHT22;2715;53.448;10.078;2022-09-29T14:40:23;22.70;66.90
5384;DHT22;2715;53.448;10.078;2022-09-29T14:48:45;22.70;67.60
5384;DHT22;2715;53.448;10.078;2022-09-29T14:51:34;22.70;67.00
5384;DHT22;2715;53.448;10.078;2022-09-29T14:54:22;22.70;67.00
5384;DHT22;2715;53.448;10.078;2022-09-29T14:56:53;22.70;67.00
5384;DHT22;2715;53.448;10.078;2022-09-29T14:59:27;22.70;67.00
5384;DHT22;2715;53.448;10.078;2022-09-29T15:02:00;22.70;67.10
5384;DHT22;2715;53.448;10.078;2022-09-29T15:04:35;22.70;67.10
5384;DHT22;2715;53.448;10.078;2022-09-29T15:07:08;22.70;67.10
5384;DHT22;2715;53.448;10.078;2022-09-29T15:09:35;22.70;67.10
5384;DHT22;2715;53.448;10.078;2022-09-29T15:12:02;22.70;67.20
5384;DHT22;2715;53.448;10.078;2022-09-29T15:14:39;22.70;67.20
5384;DHT22;2715;53.448;10.078;2022-09-29T15:17:07;22.70;67.20
5384;DHT22;2715;53.448;10.078;2022-09-29T15:19:42;22.70;67.20
5384;DHT22;2715;53.448;10.078;2022-09-29T15:22:19;22.70;67.20
5384;DHT22;2715;53.448;10.078;2022-09-29T15:24:54;22.70;67.20
5384;DHT22;2715;53.448;10.078;2022-09-29T15:27:24;22.70;67.20
5384;DHT22;2715;53.448;10.078;2022-09-29T15:29:53;22.70;67.30
5384;DHT22;2715;53.448;10.078;2022-09-29T15:32:21;22.70;67.30
5384;DHT22;2715;53.448;10.078;2022-09-29T15:34:51;22.70;67.20
5384;DHT22;2715;53.448;10.078;2022-09-29T15:37:22;22.70;67.30
5384;DHT22;2715;53.448;10.078;2022-09-29T15:39:50;22.70;67.30
5384;DHT22;2715;53.448;10.078;2022-09-29T15:42:19;22.70;67.30
5384;DHT22;2715;53.448;10.078;2022-09-29T15:44:52;22.70;67.30
5384;DHT22;2715;53.448;10.078;2022-09-29T15:47:27;22.80;67.40
5384;DHT22;2715;53.448;10.078;2022-09-29T15:49:55;22.70;67.30
5384;DHT22;2715;53.448;10.078;2022-09-29T15:52:23;22.70;67.40
5384;DHT22;2715;53.448;10.078;2022-09-29T15:54:52;22.70;67.40
5384;DHT22;2715;53.448;10.078;2022-09-29T15:57:27;22.70;67.40
5384;DHT22;2715;53.448;10.078;2022-09-29T16:03:05;22.70;67.50
5384;DHT22;2715;53.448;10.078;2022-09-29T16:05:35;22.70;67.50
5384;DHT22;2715;53.448;10.078;2022-09-29T16:08:06;22.70;67.50
5384;DHT22;2715;53.448;10.078;2022-09-29T16:10:37;22.70;67.50
5384;DHT22;2715;53.448;10.078;2022-09-29T16:13:05;22.70;67.50
5384;DHT22;2715;53.448;10.078;2022-09-29T16:15:34;22.70;67.50
5384;DHT22;2715;53.448;10.078;2022-09-29T16:18:03;22.70;67.50
5384;DHT22;2715;53.448;10.078;2022-09-29T16:20:32;22.70;67.60
5384;DHT22;2715;53.448;10.078;2022-09-29T16:23:06;22.70;67.60
5384;DHT22;2715;53.448;10.078;2022-09-29T16:25:32;22.70;67.70
5384;DHT22;2715;53.448;10.078;2022-09-29T16:27:59;22.70;67.60
5384;DHT22;2715;53.448;10.078;2022-09-29T16:30:29;22.70;67.60
5384;DHT22;2715;53.448;10.078;2022-09-29T16:33:01;22.70;67.60
5384;DHT22;2715;53.448;10.078;2022-09-29T16:35:35;22.70;67.70